sensor_id;sensor_type;location;lat;lon;timestamp;pressure;altitude;pressure_sealevel;temperature;humidity
21290;BME280;10804;48.988;2.408;2023-02-01T00:00:04;101978.84;;;9.12;67.50
21290;BME280;10804;48.988;2.408;2023-02-01T00:02:33;101990.13;;;9.14;67.50
21290;BME280;10804;48.988;2.408;2023-02-01T00:05:02;101990.13;;;9.14;67.38
21290;BME280;10804;48.988;2.408;2023-02-01T00:07:29;101995.34;;;9.14;67.26
21290;BME280;10804;48.988;2.408;2023-02-01T00:09:56;101993.63;;;9.14;67.67
21290;BME280;10804;48.988;2.408;2023-02-01T00:12:24;101984.94;;;9.14;67.47
21290;BME280;10804;48.988;2.408;2023-02-01T00:14:52;101982.31;;;9.14;67.41
21290;BME280;10804;48.988;2.408;2023-02-01T00:17:20;101987.53;;;9.14;67.27
21290;BME280;10804;48.988;2.408;2023-02-01T00:19:47;101977.13;;;9.14;67.79
21290;BME280;10804;48.988;2.408;2023-02-01T00:22:14;101971.03;;;9.15;67.53
21290;BME280;10804;48.988;2.408;2023-02-01T00:24:42;101963.22;;;9.15;67.54
21290;BME280;10804;48.988;2.408;2023-02-01T00:27:09;101951.97;;;9.14;67.46
21290;BME280;10804;48.988;2.408;2023-02-01T00:29:37;101951.09;;;9.14;67.68
21290;BME280;10804;48.988;2.408;2023-02-01T00:32:06;101949.34;;;9.11;67.75
21290;BME280;10804;48.988;2.408;2023-02-01T00:34:33;101948.50;;;9.14;67.66
21290;BME280;10804;48.988;2.408;2023-02-01T00:37:00;101949.38;;;9.14;67.50
21290;BME280;10804;48.988;2.408;2023-02-01T00:39:27;101950.25;;;9.13;67.35
21290;BME280;10804;48.988;2.408;2023-02-01T00:41:55;101964.09;;;9.14;67.57
21290;BME280;10804;48.988;2.408;2023-02-01T00:44:22;101969.31;;;9.14;67.47
21290;BME280;10804;48.988;2.408;2023-02-01T00:46:49;101958.91;;;9.14;67.42
21290;BME280;10804;48.988;2.408;2023-02-01T00:49:18;101962.38;;;9.13;67.62
21290;BME280;10804;48.988;2.408;2023-02-01T00:51:46;101974.50;;;9.14;67.82
21290;BME280;10804;48.988;2.408;2023-02-01T00:54:13;101980.59;;;9.14;67.32
21290;BME280;10804;48.988;2.408;2023-02-01T00:56:40;101970.19;;;9.13;67.48
21290;BME280;10804;48.988;2.408;2023-02-01T00:59:10;101978.00;;;9.13;67.41
21290;BME280;10804;48.988;2.408;2023-02-01T01:01:38;101979.72;;;9.14;67.31
21290;BME280;10804;48.988;2.408;2023-02-01T01:04:05;101974.53;;;9.12;67.93
21290;BME280;10804;48.988;2.408;2023-02-01T01:06:34;101975.38;;;9.11;67.61
21290;BME280;10804;48.988;2.408;2023-02-01T01:09:05;101975.38;;;9.13;67.38
21290;BME280;10804;48.988;2.408;2023-02-01T01:11:34;101976.25;;;9.12;67.49
21290;BME280;10804;48.988;2.408;2023-02-01T01:14:03;101976.25;;;9.12;67.40
21290;BME280;10804;48.988;2.408;2023-02-01T01:16:32;101982.34;;;9.12;67.45
21290;BME280;10804;48.988;2.408;2023-02-01T01:19:00;101991.88;;;9.12;67.74
21290;BME280;10804;48.988;2.408;2023-02-01T01:21:27;101984.06;;;9.12;68.00
21290;BME280;10804;48.988;2.408;2023-02-01T01:23:56;101981.47;;;9.12;67.97
21290;BME280;10804;48.988;2.408;2023-02-01T01:26:25;101981.47;;;9.12;67.81
21290;BME280;10804;48.988;2.408;2023-02-01T01:28:54;101986.66;;;9.12;67.25
21290;BME280;10804;48.988;2.408;2023-02-01T01:31:22;101988.38;;;9.11;67.74
21290;BME280;10804;48.988;2.408;2023-02-01T01:33:51;101987.53;;;9.11;67.69
21290;BME280;10804;48.988;2.408;2023-02-01T01:36:20;101986.66;;;9.12;67.38
21290;BME280;10804;48.988;2.408;2023-02-01T01:38:48;101994.47;;;9.10;67.56
21290;BME280;10804;48.988;2.408;2023-02-01T01:41:19;101988.41;;;9.10;67.70
21290;BME280;10804;48.988;2.408;2023-02-01T01:43:53;101997.06;;;9.12;67.38
21290;BME280;10804;48.988;2.408;2023-02-01T01:46:24;101999.69;;;9.09;67.66
21290;BME280;10804;48.988;2.408;2023-02-01T01:48:56;101999.66;;;9.10;67.70
21290;BME280;10804;48.988;2.408;2023-02-01T01:51:25;102001.41;;;9.10;67.38
21290;BME280;10804;48.988;2.408;2023-02-01T01:53:59;102014.44;;;9.10;67.43
21290;BME280;10804;48.988;2.408;2023-02-01T01:56:30;102007.47;;;9.06;67.99
21290;BME280;10804;48.988;2.408;2023-02-01T01:59:02;102009.22;;;9.10;67.70
21290;BME280;10804;48.988;2.408;2023-02-01T02:01:30;102017.91;;;9.09;67.62
21290;BME280;10804;48.988;2.408;2023-02-01T02:03:58;102010.94;;;9.08;67.63
21290;BME280;10804;48.988;2.408;2023-02-01T02:06:33;101994.47;;;9.01;67.58
21290;BME280;10804;48.988;2.408;2023-02-01T02:09:04;101984.03;;;8.95;67.75
21290;BME280;10804;48.988;2.408;2023-02-01T02:11:33;102005.72;;;9.08;67.75
21290;BME280;10804;48.988;2.408;2023-02-01T02:14:01;101997.09;;;9.09;67.54
21290;BME280;10804;48.988;2.408;2023-02-01T02:16:49;101997.06;;;9.06;67.38
21290;BME280;10804;48.988;2.408;2023-02-01T02:19:38;101993.63;;;9.05;67.55
21290;BME280;10804;48.988;2.408;2023-02-01T02:25:33;101988.38;;;9.07;67.94
21290;BME280;10804;48.988;2.408;2023-02-01T02:28:11;101983.19;;;9.07;67.56
21290;BME280;10804;48.988;2.408;2023-02-01T02:31:04;101985.78;;;9.07;67.80
21290;BME280;10804;48.988;2.408;2023-02-01T02:33:48;101966.69;;;8.99;67.56
21290;BME280;10804;48.988;2.408;2023-02-01T02:36:24;101977.97;;;9.07;68.18
21290;BME280;10804;48.988;2.408;2023-02-01T02:39:05;101976.25;;;9.06;68.14
21290;BME280;10804;48.988;2.408;2023-02-01T02:41:42;101964.13;;;9.00;67.78
21290;BME280;10804;48.988;2.408;2023-02-01T02:44:35;101984.94;;;9.05;67.61
21290;BME280;10804;48.988;2.408;2023-02-01T02:47:28;101987.53;;;9.06;67.83
21290;BME280;10804;48.988;2.408;2023-02-01T02:50:11;101981.44;;;9.00;67.69
21290;BME280;10804;48.988;2.408;2023-02-01T02:53:01;101986.66;;;9.03;67.88
21290;BME280;10804;48.988;2.408;2023-02-01T02:55:49;101997.94;;;9.05;67.62
21290;BME280;10804;48.988;2.408;2023-02-01T02:58:19;102000.53;;;9.05;67.52
21290;BME280;10804;48.988;2.408;2023-02-01T03:01:06;101998.81;;;9.04;67.98
21290;BME280;10804;48.988;2.408;2023-02-01T03:03:51;101993.63;;;9.01;67.44
21290;BME280;10804;48.988;2.408;2023-02-01T03:06:39;102003.13;;;9.05;67.74
21290;BME280;10804;48.988;2.408;2023-02-01T03:09:12;101990.13;;;8.99;67.95
21290;BME280;10804;48.988;2.408;2023-02-01T03:11:44;102012.69;;;9.03;68.10
21290;BME280;10804;48.988;2.408;2023-02-01T03:14:33;102006.59;;;9.02;68.14
21290;BME280;10804;48.988;2.408;2023-02-01T03:17:06;102004.00;;;9.02;68.08
21290;BME280;10804;48.988;2.408;2023-02-01T03:19:37;101991.00;;;9.02;67.72
21290;BME280;10804;48.988;2.408;2023-02-01T03:22:13;101991.00;;;9.01;67.74
21290;BME280;10804;48.988;2.408;2023-02-01T03:24:46;101987.53;;;9.00;68.06
21290;BME280;10804;48.988;2.408;2023-02-01T03:27:18;101984.06;;;8.97;67.92
21290;BME280;10804;48.988;2.408;2023-02-01T03:29:52;101991.84;;;9.01;68.14
21290;BME280;10804;48.988;2.408;2023-02-01T03:32:23;101984.91;;;8.93;67.47
21290;BME280;10804;48.988;2.408;2023-02-01T03:34:50;101992.72;;;8.94;67.82
21290;BME280;10804;48.988;2.408;2023-02-01T03:37:25;102009.22;;;8.99;68.02
21290;BME280;10804;48.988;2.408;2023-02-01T03:39:57;101996.19;;;8.95;67.84
21290;BME280;10804;48.988;2.408;2023-02-01T03:42:31;102012.66;;;9.00;67.90
21290;BME280;10804;48.988;2.408;2023-02-01T03:45:05;101998.78;;;8.98;67.51
21290;BME280;10804;48.988;2.408;2023-02-01T03:47:37;101995.31;;;8.99;67.77
21290;BME280;10804;48.988;2.408;2023-02-01T03:50:10;102005.75;;;8.97;67.69
21290;BME280;10804;48.988;2.408;2023-02-01T03:52:42;102004.88;;;8.98;67.63
21290;BME280;10804;48.988;2.408;2023-02-01T03:55:15;102010.09;;;8.98;67.94
21290;BME280;10804;48.988;2.408;2023-02-01T03:57:46;102009.19;;;8.98;68.01
21290;BME280;10804;48.988;2.408;2023-02-01T04:00:20;101983.16;;;8.96;67.71
21290;BME280;10804;48.988;2.408;2023-02-01T04:02:50;101988.41;;;8.95;67.84
21290;BME280;10804;48.988;2.408;2023-02-01T04:05:19;102002.28;;;8.97;68.18
21290;BME280;10804;48.988;2.408;2023-02-01T04:07:58;101994.47;;;8.97;68.37
21290;BME280;10804;48.988;2.408;2023-02-01T04:10:26;101997.06;;;8.94;67.50
21290;BME280;10804;48.988;2.408;2023-02-01T04:12:54;102006.59;;;8.95;67.57
21290;BME280;10804;48.988;2.408;2023-02-01T04:15:21;102010.09;;;8.94;68.08
21290;BME280;10804;48.988;2.408;2023-02-01T04:17:49;102004.88;;;8.92;67.87
21290;BME280;10804;48.988;2.408;2023-02-01T04:20:16;101997.06;;;8.88;67.96
21290;BME280;10804;48.988;2.408;2023-02-01T04:22:44;101991.00;;;8.90;67.52
21290;BME280;10804;48.988;2.408;2023-02-01T04:25:13;101997.91;;;8.85;67.90
21290;BME280;10804;48.988;2.408;2023-02-01T04:27:46;102007.47;;;8.91;68.07
21290;BME280;10804;48.988;2.408;2023-02-01T04:30:14;101993.59;;;8.89;67.71
21290;BME280;10804;48.988;2.408;2023-02-01T04:32:41;101991.84;;;8.88;68.09
21290;BME280;10804;48.988;2.408;2023-02-01T04:35:09;101989.25;;;8.89;67.62
21290;BME280;10804;48.988;2.408;2023-02-01T04:37:37;101990.09;;;8.84;67.84
21290;BME280;10804;48.988;2.408;2023-02-01T04:40:06;101997.94;;;8.87;67.91
21290;BME280;10804;48.988;2.408;2023-02-01T04:42:35;101994.44;;;8.83;67.78
21290;BME280;10804;48.988;2.408;2023-02-01T04:45:03;102010.94;;;8.87;67.91
21290;BME280;10804;48.988;2.408;2023-02-01T04:47:30;101998.78;;;8.86;68.00
21290;BME280;10804;48.988;2.408;2023-02-01T04:49:58;102004.84;;;8.83;67.63
21290;BME280;10804;48.988;2.408;2023-02-01T04:52:25;102001.38;;;8.80;67.88
21290;BME280;10804;48.988;2.408;2023-02-01T04:54:53;102003.97;;;8.74;67.75
21290;BME280;10804;48.988;2.408;2023-02-01T04:57:23;102012.66;;;8.79;67.91
21290;BME280;10804;48.988;2.408;2023-02-01T04:59:52;101991.78;;;8.65;67.70
21290;BME280;10804;48.988;2.408;2023-02-01T05:02:19;102022.19;;;8.80;68.30
21290;BME280;10804;48.988;2.408;2023-02-01T05:04:47;102020.47;;;8.79;68.25
21290;BME280;10804;48.988;2.408;2023-02-01T05:07:16;102022.19;;;8.71;68.07
21290;BME280;10804;48.988;2.408;2023-02-01T05:09:44;102019.56;;;8.71;67.82
21290;BME280;10804;48.988;2.408;2023-02-01T05:12:11;102031.72;;;8.75;67.85
21290;BME280;10804;48.988;2.408;2023-02-01T05:15:04;102033.44;;;8.76;68.08
21290;BME280;10804;48.988;2.408;2023-02-01T05:17:32;102019.56;;;8.71;68.12
21290;BME280;10804;48.988;2.408;2023-02-01T05:19:59;102032.56;;;8.71;68.18
21290;BME280;10804;48.988;2.408;2023-02-01T05:22:27;102041.22;;;8.71;67.52
21290;BME280;10804;48.988;2.408;2023-02-01T05:24:54;102042.09;;;8.69;68.10
21290;BME280;10804;48.988;2.408;2023-02-01T05:27:22;102022.16;;;8.66;67.89
21290;BME280;10804;48.988;2.408;2023-02-01T05:29:49;102033.41;;;8.65;68.25
21290;BME280;10804;48.988;2.408;2023-02-01T05:32:18;102022.16;;;8.60;68.04
21290;BME280;10804;48.988;2.408;2023-02-01T05:34:45;102030.78;;;8.58;68.15
21290;BME280;10804;48.988;2.408;2023-02-01T05:37:12;102038.59;;;8.62;68.05
21290;BME280;10804;48.988;2.408;2023-02-01T05:39:40;102039.47;;;8.61;68.28
21290;BME280;10804;48.988;2.408;2023-02-01T05:42:07;102036.88;;;8.60;68.09
21290;BME280;10804;48.988;2.408;2023-02-01T05:44:35;102029.94;;;8.59;68.50
21290;BME280;10804;48.988;2.408;2023-02-01T05:47:02;102030.81;;;8.59;68.27
21290;BME280;10804;48.988;2.408;2023-02-01T05:49:31;102036.84;;;8.58;68.05
21290;BME280;10804;48.988;2.408;2023-02-01T05:51:58;102035.13;;;8.57;68.11
21290;BME280;10804;48.988;2.408;2023-02-01T05:54:26;102036.00;;;8.58;68.14
21290;BME280;10804;48.988;2.408;2023-02-01T05:56:54;102036.88;;;8.57;68.34
21290;BME280;10804;48.988;2.408;2023-02-01T05:59:21;102032.50;;;8.54;68.28
21290;BME280;10804;48.988;2.408;2023-02-01T06:01:49;102012.53;;;8.40;68.11
21290;BME280;10804;48.988;2.408;2023-02-01T06:04:16;102038.59;;;8.55;68.40
21290;BME280;10804;48.988;2.408;2023-02-01T06:06:45;102050.72;;;8.56;68.30
21290;BME280;10804;48.988;2.408;2023-02-01T06:09:13;102033.34;;;8.47;68.03
21290;BME280;10804;48.988;2.408;2023-02-01T06:11:40;102041.16;;;8.49;68.49
21290;BME280;10804;48.988;2.408;2023-02-01T06:14:07;102047.22;;;8.54;68.06
21290;BME280;10804;48.988;2.408;2023-02-01T06:16:35;102048.13;;;8.56;68.13
21290;BME280;10804;48.988;2.408;2023-02-01T06:19:02;102039.44;;;8.48;68.37
21290;BME280;10804;48.988;2.408;2023-02-01T06:21:30;102052.44;;;8.54;68.55
21290;BME280;10804;48.988;2.408;2023-02-01T06:23:59;102029.00;;;8.40;68.30
21290;BME280;10804;48.988;2.408;2023-02-01T06:26:26;102045.50;;;8.50;68.44
21290;BME280;10804;48.988;2.408;2023-02-01T06:28:54;102036.81;;;8.49;68.72
21290;BME280;10804;48.988;2.408;2023-02-01T06:31:22;102039.44;;;8.51;68.21
21290;BME280;10804;48.988;2.408;2023-02-01T06:33:53;102035.97;;;8.52;68.35
21290;BME280;10804;48.988;2.408;2023-02-01T06:36:20;102038.56;;;8.52;68.14
21290;BME280;10804;48.988;2.408;2023-02-01T06:38:48;102023.81;;;8.49;68.15
21290;BME280;10804;48.988;2.408;2023-02-01T06:41:17;102031.63;;;8.51;68.08
21290;BME280;10804;48.988;2.408;2023-02-01T06:43:46;102042.03;;;8.51;67.97
21290;BME280;10804;48.988;2.408;2023-02-01T06:46:14;102028.13;;;8.43;68.18
21290;BME280;10804;48.988;2.408;2023-02-01T06:48:41;102040.31;;;8.50;68.44
21290;BME280;10804;48.988;2.408;2023-02-01T06:51:18;102042.88;;;8.48;67.89
21290;BME280;10804;48.988;2.408;2023-02-01T06:53:45;102044.63;;;8.49;68.51
21290;BME280;10804;48.988;2.408;2023-02-01T06:56:13;102031.56;;;8.36;67.97
21290;BME280;10804;48.988;2.408;2023-02-01T06:58:42;102045.47;;;8.36;68.23
21290;BME280;10804;48.988;2.408;2023-02-01T07:01:11;102038.50;;;8.37;68.36
21290;BME280;10804;48.988;2.408;2023-02-01T07:03:38;102042.84;;;8.42;68.48
21290;BME280;10804;48.988;2.408;2023-02-01T07:06:07;102049.78;;;8.37;68.29
21290;BME280;10804;48.988;2.408;2023-02-01T07:08:36;102068.88;;;8.44;68.29
21290;BME280;10804;48.988;2.408;2023-02-01T07:11:05;102029.78;;;8.20;68.46
21290;BME280;10804;48.988;2.408;2023-02-01T07:13:33;102078.41;;;8.42;68.09
21290;BME280;10804;48.988;2.408;2023-02-01T07:16:03;102075.75;;;8.39;68.21
21290;BME280;10804;48.988;2.408;2023-02-01T07:18:32;102088.78;;;8.42;68.26
21290;BME280;10804;48.988;2.408;2023-02-01T07:21:00;102071.41;;;8.29;68.30
21290;BME280;10804;48.988;2.408;2023-02-01T07:23:33;102100.03;;;8.38;68.46
21290;BME280;10804;48.988;2.408;2023-02-01T07:26:03;102086.19;;;8.37;68.14
21290;BME280;10804;48.988;2.408;2023-02-01T07:28:33;102089.63;;;8.38;68.04
21290;BME280;10804;48.988;2.408;2023-02-01T07:31:08;102076.56;;;8.24;68.20
21290;BME280;10804;48.988;2.408;2023-02-01T07:33:36;102093.94;;;8.31;68.41
21290;BME280;10804;48.988;2.408;2023-02-01T07:36:05;102102.63;;;8.35;68.38
21290;BME280;10804;48.988;2.408;2023-02-01T07:38:48;102079.94;;;8.13;68.47
21290;BME280;10804;48.988;2.408;2023-02-01T07:41:30;102081.72;;;8.17;68.52
21290;BME280;10804;48.988;2.408;2023-02-01T07:44:06;102106.94;;;8.31;68.29
21290;BME280;10804;48.988;2.408;2023-02-01T07:46:39;102113.00;;;8.32;68.31
21290;BME280;10804;48.988;2.408;2023-02-01T07:49:09;102092.06;;;8.11;68.51
21290;BME280;10804;48.988;2.408;2023-02-01T07:51:49;102113.81;;;8.22;68.72
21290;BME280;10804;48.988;2.408;2023-02-01T07:54:17;102137.25;;;8.31;68.32
21290;BME280;10804;48.988;2.408;2023-02-01T07:56:44;102140.69;;;8.30;68.38
21290;BME280;10804;48.988;2.408;2023-02-01T07:59:11;102142.44;;;8.28;68.29
21290;BME280;10804;48.988;2.408;2023-02-01T08:01:40;102141.56;;;8.29;68.88
21290;BME280;10804;48.988;2.408;2023-02-01T08:04:09;102146.75;;;8.27;68.48
21290;BME280;10804;48.988;2.408;2023-02-01T08:06:38;102145.91;;;8.30;68.05
21290;BME280;10804;48.988;2.408;2023-02-01T08:09:07;102138.09;;;8.27;68.54
21290;BME280;10804;48.988;2.408;2023-02-01T08:11:34;102129.44;;;8.29;68.34
21290;BME280;10804;48.988;2.408;2023-02-01T08:14:04;102119.91;;;8.30;67.95
21290;BME280;10804;48.988;2.408;2023-02-01T08:16:32;102111.22;;;8.26;68.58
21290;BME280;10804;48.988;2.408;2023-02-01T08:19:03;102111.25;;;8.28;68.40
21290;BME280;10804;48.988;2.408;2023-02-01T08:21:31;102106.03;;;8.25;68.60
21290;BME280;10804;48.988;2.408;2023-02-01T08:24:04;102093.00;;;8.22;68.45
21290;BME280;10804;48.988;2.408;2023-02-01T08:26:31;102106.06;;;8.29;68.27
21290;BME280;10804;48.988;2.408;2023-02-01T08:29:02;102083.44;;;8.16;68.23
21290;BME280;10804;48.988;2.408;2023-02-01T08:31:30;102105.19;;;8.30;68.93
21290;BME280;10804;48.988;2.408;2023-02-01T08:33:59;102076.50;;;8.18;68.64
21290;BME280;10804;48.988;2.408;2023-02-01T08:36:29;102079.16;;;8.23;68.77
21290;BME280;10804;48.988;2.408;2023-02-01T08:38:57;102095.69;;;8.34;68.69
21290;BME280;10804;48.988;2.408;2023-02-01T08:41:27;102091.34;;;8.34;68.36
21290;BME280;10804;48.988;2.408;2023-02-01T08:43:55;102080.97;;;8.36;68.05
21290;BME280;10804;48.988;2.408;2023-02-01T08:46:23;102071.44;;;8.32;68.40
21290;BME280;10804;48.988;2.408;2023-02-01T08:48:51;102065.38;;;8.36;68.40
21290;BME280;10804;48.988;2.408;2023-02-01T08:51:21;102066.22;;;8.32;68.20
21290;BME280;10804;48.988;2.408;2023-02-01T08:53:50;102074.03;;;8.39;68.10
21290;BME280;10804;48.988;2.408;2023-02-01T08:56:19;102074.03;;;8.39;68.39
21290;BME280;10804;48.988;2.408;2023-02-01T08:58:46;102071.44;;;8.38;68.31
21290;BME280;10804;48.988;2.408;2023-02-01T09:01:15;102075.75;;;8.36;68.40
21290;BME280;10804;48.988;2.408;2023-02-01T09:03:43;102081.88;;;8.41;68.22
21290;BME280;10804;48.988;2.408;2023-02-01T09:06:13;102089.66;;;8.41;68.05
21290;BME280;10804;48.988;2.408;2023-02-01T09:08:41;102095.72;;;8.41;68.58
21290;BME280;10804;48.988;2.408;2023-02-01T09:11:12;102096.59;;;8.42;68.59
21290;BME280;10804;48.988;2.408;2023-02-01T09:13:40;102094.84;;;8.42;67.77
21290;BME280;10804;48.988;2.408;2023-02-01T09:16:08;102112.22;;;8.46;68.23
21290;BME280;10804;48.988;2.408;2023-02-01T09:18:35;102114.78;;;8.42;68.46
21290;BME280;10804;48.988;2.408;2023-02-01T09:21:04;102115.69;;;8.45;68.23
21290;BME280;10804;48.988;2.408;2023-02-01T09:23:32;102087.84;;;8.26;68.45
21290;BME280;10804;48.988;2.408;2023-02-01T09:26:00;102089.59;;;8.26;68.24
21290;BME280;10804;48.988;2.408;2023-02-01T09:28:29;102120.00;;;8.42;68.58
21290;BME280;10804;48.988;2.408;2023-02-01T09:30:57;102142.59;;;8.55;68.38
21290;BME280;10804;48.988;2.408;2023-02-01T09:33:24;102145.19;;;8.55;68.29
21290;BME280;10804;48.988;2.408;2023-02-01T09:35:55;102155.59;;;8.56;67.94
21290;BME280;10804;48.988;2.408;2023-02-01T09:38:23;102157.34;;;8.56;68.33
21290;BME280;10804;48.988;2.408;2023-02-01T09:40:51;102161.66;;;8.60;68.11
21290;BME280;10804;48.988;2.408;2023-02-01T09:43:32;102153.00;;;8.61;68.23
21290;BME280;10804;48.988;2.408;2023-02-01T09:46:18;102165.16;;;8.62;68.36
21290;BME280;10804;48.988;2.408;2023-02-01T09:48:49;102159.09;;;8.63;67.75
21290;BME280;10804;48.988;2.408;2023-02-01T09:51:23;102158.22;;;8.62;68.65
21290;BME280;10804;48.988;2.408;2023-02-01T09:53:59;102164.31;;;8.66;67.99
21290;BME280;10804;48.988;2.408;2023-02-01T09:56:35;102140.88;;;8.60;68.01
21290;BME280;10804;48.988;2.408;2023-02-01T09:59:12;102158.25;;;8.67;68.21
21290;BME280;10804;48.988;2.408;2023-02-01T10:01:45;102160.84;;;8.70;68.01
21290;BME280;10804;48.988;2.408;2023-02-01T10:04:13;102158.25;;;8.70;68.12
21290;BME280;10804;48.988;2.408;2023-02-01T10:06:53;102132.22;;;8.59;67.86
21290;BME280;10804;48.988;2.408;2023-02-01T10:09:33;102160.88;;;8.73;68.03
21290;BME280;10804;48.988;2.408;2023-02-01T10:12:30;102162.63;;;8.74;68.39
21290;BME280;10804;48.988;2.408;2023-02-01T10:15:13;102160.88;;;8.76;68.14
21290;BME280;10804;48.988;2.408;2023-02-01T10:17:53;102138.34;;;8.72;67.94
21290;BME280;10804;48.988;2.408;2023-02-01T10:20:27;102134.84;;;8.71;68.04
21290;BME280;10804;48.988;2.408;2023-02-01T10:23:03;102147.91;;;8.79;68.25
21290;BME280;10804;48.988;2.408;2023-02-01T10:25:36;102148.78;;;8.81;67.80
21290;BME280;10804;48.988;2.408;2023-02-01T10:28:14;102125.34;;;8.72;68.45
21290;BME280;10804;48.988;2.408;2023-02-01T10:30:45;102142.72;;;8.83;68.39
21290;BME280;10804;48.988;2.408;2023-02-01T10:33:16;102149.69;;;8.86;68.15
21290;BME280;10804;48.988;2.408;2023-02-01T10:35:44;102154.00;;;8.88;67.93
21290;BME280;10804;48.988;2.408;2023-02-01T10:38:17;102147.06;;;8.89;68.41
21290;BME280;10804;48.988;2.408;2023-02-01T10:40:51;102143.63;;;8.91;68.08
21290;BME280;10804;48.988;2.408;2023-02-01T10:43:19;102125.41;;;8.87;67.63
21290;BME280;10804;48.988;2.408;2023-02-01T10:45:48;102133.22;;;8.96;67.75
21290;BME280;10804;48.988;2.408;2023-02-01T10:48:16;102120.19;;;8.87;67.88
21290;BME280;10804;48.988;2.408;2023-02-01T10:50:47;102142.75;;;9.00;67.90
21290;BME280;10804;48.988;2.408;2023-02-01T10:53:20;102131.53;;;9.01;67.75
21290;BME280;10804;48.988;2.408;2023-02-01T10:55:49;102131.50;;;9.07;67.81
21290;BME280;10804;48.988;2.408;2023-02-01T10:58:20;102131.53;;;9.05;67.83
21290;BME280;10804;48.988;2.408;2023-02-01T11:00:54;102136.75;;;9.13;67.28
21290;BME280;10804;48.988;2.408;2023-02-01T11:03:33;102120.25;;;9.11;67.65
21290;BME280;10804;48.988;2.408;2023-02-01T11:06:03;102128.06;;;9.14;67.94
21290;BME280;10804;48.988;2.408;2023-02-01T11:08:42;102117.66;;;9.15;68.05
21290;BME280;10804;48.988;2.408;2023-02-01T11:11:10;102114.19;;;9.21;67.95
21290;BME280;10804;48.988;2.408;2023-02-01T11:13:39;102128.97;;;9.28;68.31
21290;BME280;10804;48.988;2.408;2023-02-01T11:16:12;102128.97;;;9.31;68.20
21290;BME280;10804;48.988;2.408;2023-02-01T11:18:41;102123.78;;;9.34;68.33
21290;BME280;10804;48.988;2.408;2023-02-01T11:21:09;102095.13;;;9.25;68.28
21290;BME280;10804;48.988;2.408;2023-02-01T11:23:43;102122.03;;;9.40;68.12
21290;BME280;10804;48.988;2.408;2023-02-01T11:26:14;102112.47;;;9.38;68.08
21290;BME280;10804;48.988;2.408;2023-02-01T11:28:50;102119.44;;;9.46;67.88
21290;BME280;10804;48.988;2.408;2023-02-01T11:31:20;102125.53;;;9.50;67.96
21290;BME280;10804;48.988;2.408;2023-02-01T11:33:55;102119.44;;;9.49;68.00
21290;BME280;10804;48.988;2.408;2023-02-01T11:36:27;102135.94;;;9.54;67.78
21290;BME280;10804;48.988;2.408;2023-02-01T11:39:09;102121.19;;;9.52;67.78
21290;BME280;10804;48.988;2.408;2023-02-01T11:41:41;102115.13;;;9.59;67.48
21290;BME280;10804;48.988;2.408;2023-02-01T11:44:20;102086.44;;;9.42;67.65
21290;BME280;10804;48.988;2.408;2023-02-01T11:46:50;102109.91;;;9.59;67.65
21290;BME280;10804;48.988;2.408;2023-02-01T11:49:23;102120.34;;;9.65;67.46
21290;BME280;10804;48.988;2.408;2023-02-01T11:52:03;102105.56;;;9.65;67.81
21290;BME280;10804;48.988;2.408;2023-02-01T11:54:44;102106.41;;;9.69;67.58
21290;BME280;10804;48.988;2.408;2023-02-01T11:57:26;102101.22;;;9.69;67.66
21290;BME280;10804;48.988;2.408;2023-02-01T12:00:05;102095.16;;;9.70;67.48
21290;BME280;10804;48.988;2.408;2023-02-01T12:03:04;102090.81;;;9.78;67.35
21290;BME280;10804;48.988;2.408;2023-02-01T12:05:47;102085.59;;;9.82;67.60
21290;BME280;10804;48.988;2.408;2023-02-01T12:11:43;102079.50;;;9.91;67.35
21290;BME280;10804;48.988;2.408;2023-02-01T12:14:29;102065.59;;;9.96;67.48
21290;BME280;10804;48.988;2.408;2023-02-01T12:17:14;102057.78;;;10.04;67.12
21290;BME280;10804;48.988;2.408;2023-02-01T12:20:02;102060.38;;;10.10;67.04
21290;BME280;10804;48.988;2.408;2023-02-01T12:22:44;102041.28;;;10.03;66.97
21290;BME280;10804;48.988;2.408;2023-02-01T12:25:24;102062.09;;;10.21;66.97
21290;BME280;10804;48.988;2.408;2023-02-01T12:28:06;102046.44;;;10.21;66.91
21290;BME280;10804;48.988;2.408;2023-02-01T12:30:46;102062.03;;;10.33;66.89
21290;BME280;10804;48.988;2.408;2023-02-01T12:33:24;102067.25;;;10.39;66.74
21290;BME280;10804;48.988;2.408;2023-02-01T12:36:09;102039.47;;;10.29;66.86
21290;BME280;10804;48.988;2.408;2023-02-01T12:38:46;102061.09;;;10.49;66.54
21290;BME280;10804;48.988;2.408;2023-02-01T12:44:40;102059.34;;;10.56;66.43
21290;BME280;10804;48.988;2.408;2023-02-01T12:47:16;102050.69;;;10.52;66.18
21290;BME280;10804;48.988;2.408;2023-02-01T12:49:53;102059.34;;;10.59;66.09
21290;BME280;10804;48.988;2.408;2023-02-01T12:52:37;102050.63;;;10.63;66.18
21290;BME280;10804;48.988;2.408;2023-02-01T12:55:16;102037.63;;;10.49;65.86
21290;BME280;10804;48.988;2.408;2023-02-01T12:57:48;102052.34;;;10.67;65.97
21290;BME280;10804;48.988;2.408;2023-02-01T13:00:23;102060.16;;;10.67;65.54
21290;BME280;10804;48.988;2.408;2023-02-01T13:02:59;102048.00;;;10.67;65.65
21290;BME280;10804;48.988;2.408;2023-02-01T13:05:31;102050.59;;;10.69;65.79
21290;BME280;10804;48.988;2.408;2023-02-01T13:08:06;102046.25;;;10.68;65.79
21290;BME280;10804;48.988;2.408;2023-02-01T13:10:38;102028.00;;;10.63;65.79
21290;BME280;10804;48.988;2.408;2023-02-01T13:13:14;102037.56;;;10.67;65.57
21290;BME280;10804;48.988;2.408;2023-02-01T13:15:47;102047.13;;;10.67;65.64
21290;BME280;10804;48.988;2.408;2023-02-01T13:18:20;102034.97;;;10.63;65.72
21290;BME280;10804;48.988;2.408;2023-02-01T13:20:53;102036.72;;;10.65;65.68
21290;BME280;10804;48.988;2.408;2023-02-01T13:23:27;102033.22;;;10.65;65.53
21290;BME280;10804;48.988;2.408;2023-02-01T13:25:56;102030.63;;;10.65;65.68
21290;BME280;10804;48.988;2.408;2023-02-01T13:28:27;102021.06;;;10.58;65.68
21290;BME280;10804;48.988;2.408;2023-02-01T13:31:06;102027.16;;;10.61;65.55
21290;BME280;10804;48.988;2.408;2023-02-01T13:33:52;102019.31;;;10.63;65.56